sensor_id;sensor_type;location;lat;lon;timestamp;temperature;humidity
7646;DHT22;3864;48.180;14.178;2022-08-19T00:01:41;17.10;99.90
7646;DHT22;3864;48.180;14.178;2022-08-19T00:04:12;17.00;99.90
7646;DHT22;3864;48.180;14.178;2022-08-19T00:06:42;17.00;99.90
7646;DHT22;3864;48.180;14.178;2022-08-19T00:09:12;17.00;99.90
7646;DHT22;3864;48.180;14.178;2022-08-19T00:11:40;16.90;99.90
7646;DHT22;3864;48.180;14.178;2022-08-19T00:14:09;16.90;99.90
7646;DHT22;3864;48.180;14.178;2022-08-19T00:16:38;16.90;99.90
7646;DHT22;3864;48.180;14.178;2022-08-19T00:19:07;16.80;99.90
7646;DHT22;3864;48.180;14.178;2022-08-19T00:21:36;16.80;99.90
7646;DHT22;3864;48.180;14.178;2022-08-19T00:24:06;16.70;99.90
7646;DHT22;3864;48.180;14.178;2022-08-19T00:26:33;16.70;99.90
7646;DHT22;3864;48.180;14.178;2022-08-19T00:29:02;16.70;99.90
7646;DHT22;3864;48.180;14.178;2022-08-19T00:31:29;16.70;99.90
7646;DHT22;3864;48.180;14.178;2022-08-19T00:33:57;16.70;99.90
7646;DHT22;3864;48.180;14.178;2022-08-19T00:36:25;16.80;99.90
7646;DHT22;3864;48.180;14.178;2022-08-19T00:38:56;16.80;99.90
7646;DHT22;3864;48.180;14.178;2022-08-19T00:41:25;16.80;99.90
7646;DHT22;3864;48.180;14.178;2022-08-19T00:44:00;16.70;99.90
7646;DHT22;3864;48.180;14.178;2022-08-19T00:46:28;16.70;99.90
7646;DHT22;3864;48.180;14.178;2022-08-19T00:48:56;16.70;99.90
7646;DHT22;3864;48.180;14.178;2022-08-19T00:51:24;16.70;99.90
7646;DHT22;3864;48.180;14.178;2022-08-19T00:53:53;16.70;99.90
7646;DHT22;3864;48.180;14.178;2022-08-19T00:56:23;16.60;99.90
7646;DHT22;3864;48.180;14.178;2022-08-19T00:58:52;16.60;99.90
7646;DHT22;3864;48.180;14.178;2022-08-19T01:01:21;16.60;99.90
7646;DHT22;3864;48.180;14.178;2022-08-19T01:03:49;16.50;99.90
7646;DHT22;3864;48.180;14.178;2022-08-19T01:06:16;16.60;99.90
7646;DHT22;3864;48.180;14.178;2022-08-19T01:08:44;16.60;99.90
7646;DHT22;3864;48.180;14.178;2022-08-19T01:11:12;16.60;99.90
7646;DHT22;3864;48.180;14.178;2022-08-19T01:13:41;16.50;99.90
7646;DHT22;3864;48.180;14.178;2022-08-19T01:16:10;16.60;99.90
7646;DHT22;3864;48.180;14.178;2022-08-19T01:18:41;16.60;99.90
7646;DHT22;3864;48.180;14.178;2022-08-19T01:21:12;16.70;99.90
7646;DHT22;3864;48.180;14.178;2022-08-19T01:23:45;16.70;99.90
7646;DHT22;3864;48.180;14.178;2022-08-19T01:26:16;16.70;99.90
7646;DHT22;3864;48.180;14.178;2022-08-19T01:28:45;16.70;99.90
7646;DHT22;3864;48.180;14.178;2022-08-19T01:31:17;16.70;99.90
7646;DHT22;3864;48.180;14.178;2022-08-19T01:33:46;16.80;99.90
7646;DHT22;3864;48.180;14.178;2022-08-19T01:36:16;16.70;99.90
7646;DHT22;3864;48.180;14.178;2022-08-19T01:38:50;16.70;99.90
7646;DHT22;3864;48.180;14.178;2022-08-19T01:41:18;16.70;99.90
7646;DHT22;3864;48.180;14.178;2022-08-19T01:43:46;16.70;99.90
7646;DHT22;3864;48.180;14.178;2022-08-19T01:46:13;16.70;99.90
7646;DHT22;3864;48.180;14.178;2022-08-19T01:48:42;16.70;99.90
7646;DHT22;3864;48.180;14.178;2022-08-19T01:51:11;16.60;99.90
7646;DHT22;3864;48.180;14.178;2022-08-19T01:53:40;16.60;99.90
7646;DHT22;3864;48.180;14.178;2022-08-19T01:56:09;16.60;99.90
7646;DHT22;3864;48.180;14.178;2022-08-19T01:58:39;16.60;99.90
7646;DHT22;3864;48.180;14.178;2022-08-19T02:01:08;16.60;99.90
7646;DHT22;3864;48.180;14.178;2022-08-19T02:03:35;16.60;99.90
7646;DHT22;3864;48.180;14.178;2022-08-19T02:06:03;16.60;99.90
7646;DHT22;3864;48.180;14.178;2022-08-19T02:08:33;16.50;99.90
7646;DHT22;3864;48.180;14.178;2022-08-19T02:11:01;16.50;99.90
7646;DHT22;3864;48.180;14.178;2022-08-19T02:13:32;16.50;99.90
7646;DHT22;3864;48.180;14.178;2022-08-19T02:15:59;16.50;99.90
7646;DHT22;3864;48.180;14.178;2022-08-19T02:18:27;16.50;99.90
7646;DHT22;3864;48.180;14.178;2022-08-19T02:20:54;16.60;99.90
7646;DHT22;3864;48.180;14.178;2022-08-19T02:23:21;16.60;99.90
7646;DHT22;3864;48.180;14.178;2022-08-19T02:25:51;16.70;99.90
7646;DHT22;3864;48.180;14.178;2022-08-19T02:28:18;16.70;99.90
7646;DHT22;3864;48.180;14.178;2022-08-19T02:30:48;16.70;99.90
7646;DHT22;3864;48.180;14.178;2022-08-19T02:33:16;16.70;99.90
7646;DHT22;3864;48.180;14.178;2022-08-19T02:35:45;16.70;99.90
7646;DHT22;3864;48.180;14.178;2022-08-19T02:38:14;16.70;99.90
7646;DHT22;3864;48.180;14.178;2022-08-19T02:40:56;16.70;99.90
7646;DHT22;3864;48.180;14.178;2022-08-19T02:43:25;16.70;99.90
7646;DHT22;3864;48.180;14.178;2022-08-19T02:45:54;16.70;99.90
7646;DHT22;3864;48.180;14.178;2022-08-19T02:48:24;16.80;99.90
7646;DHT22;3864;48.180;14.178;2022-08-19T02:50:52;16.70;99.90
7646;DHT22;3864;48.180;14.178;2022-08-19T02:53:22;16.70;99.90
7646;DHT22;3864;48.180;14.178;2022-08-19T02:55:50;16.70;99.90
7646;DHT22;3864;48.180;14.178;2022-08-19T02:58:19;16.60;99.90
7646;DHT22;3864;48.180;14.178;2022-08-19T03:00:49;16.50;99.90
7646;DHT22;3864;48.180;14.178;2022-08-19T03:03:19;16.50;99.90
7646;DHT22;3864;48.180;14.178;2022-08-19T03:05:47;16.60;99.90
7646;DHT22;3864;48.180;14.178;2022-08-19T03:08:14;16.60;99.90
7646;DHT22;3864;48.180;14.178;2022-08-19T03:10:43;16.80;99.90
7646;DHT22;3864;48.180;14.178;2022-08-19T03:13:12;16.80;99.90
7646;DHT22;3864;48.180;14.178;2022-08-19T03:15:41;16.80;99.90
7646;DHT22;3864;48.180;14.178;2022-08-19T03:18:10;16.80;99.90
7646;DHT22;3864;48.180;14.178;2022-08-19T03:20:43;16.60;99.90
7646;DHT22;3864;48.180;14.178;2022-08-19T03:23:11;16.60;99.90
7646;DHT22;3864;48.180;14.178;2022-08-19T03:25:41;16.40;99.90
7646;DHT22;3864;48.180;14.178;2022-08-19T03:28:09;16.40;99.90
7646;DHT22;3864;48.180;14.178;2022-08-19T03:30:38;16.40;99.90
7646;DHT22;3864;48.180;14.178;2022-08-19T03:33:06;16.30;99.90
7646;DHT22;3864;48.180;14.178;2022-08-19T03:35:34;16.30;99.90
7646;DHT22;3864;48.180;14.178;2022-08-19T03:38:04;16.30;99.90
7646;DHT22;3864;48.180;14.178;2022-08-19T03:40:32;16.20;99.90
7646;DHT22;3864;48.180;14.178;2022-08-19T03:43:00;16.10;99.90
7646;DHT22;3864;48.180;14.178;2022-08-19T03:45:28;16.10;99.90
7646;DHT22;3864;48.180;14.178;2022-08-19T03:47:55;16.00;99.90
7646;DHT22;3864;48.180;14.178;2022-08-19T03:50:23;16.00;99.90
7646;DHT22;3864;48.180;14.178;2022-08-19T03:52:51;15.90;99.90
7646;DHT22;3864;48.180;14.178;2022-08-19T03:55:21;15.90;99.90
7646;DHT22;3864;48.180;14.178;2022-08-19T03:57:48;15.80;99.90
7646;DHT22;3864;48.180;14.178;2022-08-19T04:00:16;15.80;99.90
7646;DHT22;3864;48.180;14.178;2022-08-19T04:02:43;15.90;99.90
7646;DHT22;3864;48.180;14.178;2022-08-19T04:05:11;16.00;99.90
7646;DHT22;3864;48.180;14.178;2022-08-19T04:07:39;16.10;99.90
7646;DHT22;3864;48.180;14.178;2022-08-19T04:10:07;16.20;99.90
7646;DHT22;3864;48.180;14.178;2022-08-19T04:12:36;16.20;99.90
7646;DHT22;3864;48.180;14.178;2022-08-19T04:15:05;16.40;99.90
7646;DHT22;3864;48.180;14.178;2022-08-19T04:17:33;16.50;99.90
7646;DHT22;3864;48.180;14.178;2022-08-19T04:20:01;16.60;99.90
7646;DHT22;3864;48.180;14.178;2022-08-19T04:22:28;16.80;99.90
7646;DHT22;3864;48.180;14.178;2022-08-19T04:24:56;16.90;99.90
7646;DHT22;3864;48.180;14.178;2022-08-19T04:27:23;17.10;99.90
7646;DHT22;3864;48.180;14.178;2022-08-19T04:29:53;17.10;99.90
7646;DHT22;3864;48.180;14.178;2022-08-19T04:32:21;17.20;99.90
7646;DHT22;3864;48.180;14.178;2022-08-19T04:34:48;17.20;99.90
7646;DHT22;3864;48.180;14.178;2022-08-19T04:37:16;17.30;99.90
7646;DHT22;3864;48.180;14.178;2022-08-19T04:39:43;17.40;99.90
7646;DHT22;3864;48.180;14.178;2022-08-19T04:42:28;17.50;99.90
7646;DHT22;3864;48.180;14.178;2022-08-19T04:45:12;17.50;99.90
7646;DHT22;3864;48.180;14.178;2022-08-19T04:47:42;17.60;99.90
7646;DHT22;3864;48.180;14.178;2022-08-19T04:50:10;17.60;99.90
7646;DHT22;3864;48.180;14.178;2022-08-19T04:52:38;17.60;99.90
7646;DHT22;3864;48.180;14.178;2022-08-19T04:55:09;17.50;99.90
7646;DHT22;3864;48.180;14.178;2022-08-19T04:57:37;17.50;99.90
7646;DHT22;3864;48.180;14.178;2022-08-19T05:00:10;17.50;99.90
7646;DHT22;3864;48.180;14.178;2022-08-19T05:02:38;17.40;99.90
7646;DHT22;3864;48.180;14.178;2022-08-19T05:05:06;17.40;99.90
7646;DHT22;3864;48.180;14.178;2022-08-19T05:07:33;17.40;99.90
7646;DHT22;3864;48.180;14.178;2022-08-19T05:10:01;17.50;99.90
7646;DHT22;3864;48.180;14.178;2022-08-19T05:12:29;17.50;99.90
7646;DHT22;3864;48.180;14.178;2022-08-19T05:14:57;17.50;99.90
7646;DHT22;3864;48.180;14.178;2022-08-19T05:17:27;17.50;99.90
7646;DHT22;3864;48.180;14.178;2022-08-19T05:19:54;17.50;99.90
7646;DHT22;3864;48.180;14.178;2022-08-19T05:22:39;17.50;99.90
7646;DHT22;3864;48.180;14.178;2022-08-19T05:25:10;17.40;99.90
7646;DHT22;3864;48.180;14.178;2022-08-19T05:27:39;17.40;99.90
7646;DHT22;3864;48.180;14.178;2022-08-19T05:30:08;17.50;99.90
7646;DHT22;3864;48.180;14.178;2022-08-19T05:32:37;17.50;99.90
7646;DHT22;3864;48.180;14.178;2022-08-19T05:35:06;17.50;99.90
7646;DHT22;3864;48.180;14.178;2022-08-19T05:37:34;17.40;99.90
7646;DHT22;3864;48.180;14.178;2022-08-19T05:40:01;17.40;99.90
7646;DHT22;3864;48.180;14.178;2022-08-19T05:42:29;17.40;99.90
7646;DHT22;3864;48.180;14.178;2022-08-19T05:44:57;17.50;99.90
7646;DHT22;3864;48.180;14.178;2022-08-19T05:47:24;17.50;99.90
7646;DHT22;3864;48.180;14.178;2022-08-19T05:49:54;17.50;99.90
7646;DHT22;3864;48.180;14.178;2022-08-19T05:52:21;17.70;99.90
7646;DHT22;3864;48.180;14.178;2022-08-19T05:54:49;17.70;99.90
7646;DHT22;3864;48.180;14.178;2022-08-19T05:57:17;17.70;99.90
7646;DHT22;3864;48.180;14.178;2022-08-19T05:59:44;17.90;99.90
7646;DHT22;3864;48.180;14.178;2022-08-19T06:02:17;18.00;99.90
7646;DHT22;3864;48.180;14.178;2022-08-19T06:04:44;18.20;99.90
7646;DHT22;3864;48.180;14.178;2022-08-19T06:07:13;18.20;99.90
7646;DHT22;3864;48.180;14.178;2022-08-19T06:09:41;18.30;99.90
7646;DHT22;3864;48.180;14.178;2022-08-19T06:12:08;18.30;99.90
7646;DHT22;3864;48.180;14.178;2022-08-19T06:14:36;18.40;99.90
7646;DHT22;3864;48.180;14.178;2022-08-19T06:17:03;18.70;99.90
7646;DHT22;3864;48.180;14.178;2022-08-19T06:19:31;19.10;99.90
7646;DHT22;3864;48.180;14.178;2022-08-19T06:22:00;19.40;99.90
7646;DHT22;3864;48.180;14.178;2022-08-19T06:24:29;19.70;99.90
7646;DHT22;3864;48.180;14.178;2022-08-19T06:26:58;19.90;99.90
7646;DHT22;3864;48.180;14.178;2022-08-19T06:29:27;20.20;99.90
7646;DHT22;3864;48.180;14.178;2022-08-19T06:31:57;20.60;99.90
7646;DHT22;3864;48.180;14.178;2022-08-19T06:34:25;20.80;99.90
7646;DHT22;3864;48.180;14.178;2022-08-19T06:36:55;21.10;99.90
7646;DHT22;3864;48.180;14.178;2022-08-19T06:42:12;22.40;99.90
7646;DHT22;3864;48.180;14.178;2022-08-19T06:44:42;22.80;99.90
7646;DHT22;3864;48.180;14.178;2022-08-19T06:47:13;23.20;99.90
7646;DHT22;3864;48.180;14.178;2022-08-19T06:49:44;24.10;99.90
7646;DHT22;3864;48.180;14.178;2022-08-19T06:52:17;25.40;99.90
7646;DHT22;3864;48.180;14.178;2022-08-19T06:54:45;26.50;99.90
7646;DHT22;3864;48.180;14.178;2022-08-19T07:00:56;26.70;99.90
7646;DHT22;3864;48.180;14.178;2022-08-19T07:03:33;26.50;99.90
7646;DHT22;3864;48.180;14.178;2022-08-19T07:06:17;26.70;99.90
7646;DHT22;3864;48.180;14.178;2022-08-19T07:08:46;26.90;99.90
7646;DHT22;3864;48.180;14.178;2022-08-19T07:11:16;26.60;99.90
7646;DHT22;3864;48.180;14.178;2022-08-19T07:13:45;26.40;99.90
7646;DHT22;3864;48.180;14.178;2022-08-19T07:16:17;26.10;99.90
7646;DHT22;3864;48.180;14.178;2022-08-19T07:18:47;25.70;99.90
7646;DHT22;3864;48.180;14.178;2022-08-19T07:21:16;25.20;99.90
7646;DHT22;3864;48.180;14.178;2022-08-19T07:23:45;25.00;99.90
7646;DHT22;3864;48.180;14.178;2022-08-19T07:26:15;24.70;99.90
7646;DHT22;3864;48.180;14.178;2022-08-19T07:28:43;24.40;99.90
7646;DHT22;3864;48.180;14.178;2022-08-19T07:31:13;24.10;99.90
7646;DHT22;3864;48.180;14.178;2022-08-19T07:33:42;23.80;99.90
7646;DHT22;3864;48.180;14.178;2022-08-19T07:36:11;23.50;99.90
7646;DHT22;3864;48.180;14.178;2022-08-19T07:38:41;23.40;99.90
7646;DHT22;3864;48.180;14.178;2022-08-19T07:41:10;23.20;99.90
7646;DHT22;3864;48.180;14.178;2022-08-19T07:43:37;23.30;99.90
7646;DHT22;3864;48.180;14.178;2022-08-19T07:46:06;23.60;99.90
7646;DHT22;3864;48.180;14.178;2022-08-19T07:48:34;24.10;99.90
7646;DHT22;3864;48.180;14.178;2022-08-19T07:51:05;24.20;99.90
7646;DHT22;3864;48.180;14.178;2022-08-19T07:53:36;24.30;99.90
7646;DHT22;3864;48.180;14.178;2022-08-19T07:56:05;24.40;99.90
7646;DHT22;3864;48.180;14.178;2022-08-19T07:58:36;24.40;99.90
7646;DHT22;3864;48.180;14.178;2022-08-19T08:01:05;25.00;99.90
7646;DHT22;3864;48.180;14.178;2022-08-19T08:03:33;26.00;99.90
7646;DHT22;3864;48.180;14.178;2022-08-19T08:06:20;26.60;99.90
7646;DHT22;3864;48.180;14.178;2022-08-19T08:09:05;26.50;99.90
7646;DHT22;3864;48.180;14.178;2022-08-19T08:11:46;26.40;99.90
7646;DHT22;3864;48.180;14.178;2022-08-19T08:14:16;27.10;99.90
7646;DHT22;3864;48.180;14.178;2022-08-19T08:16:52;27.70;99.90
7646;DHT22;3864;48.180;14.178;2022-08-19T08:19:22;27.60;99.90
7646;DHT22;3864;48.180;14.178;2022-08-19T08:21:52;27.90;99.90
7646;DHT22;3864;48.180;14.178;2022-08-19T08:24:20;29.90;99.90
7646;DHT22;3864;48.180;14.178;2022-08-19T08:26:47;32.50;99.90
7646;DHT22;3864;48.180;14.178;2022-08-19T08:29:14;32.00;99.90
7646;DHT22;3864;48.180;14.178;2022-08-19T08:31:43;31.60;99.90
7646;DHT22;3864;48.180;14.178;2022-08-19T08:34:12;32.60;99.90
7646;DHT22;3864;48.180;14.178;2022-08-19T08:36:41;33.90;99.90
7646;DHT22;3864;48.180;14.178;2022-08-19T08:39:13;34.30;99.90
7646;DHT22;3864;48.180;14.178;2022-08-19T08:41:46;34.90;98.90
7646;DHT22;3864;48.180;14.178;2022-08-19T08:44:18;35.00;98.10
7646;DHT22;3864;48.180;14.178;2022-08-19T08:46:49;35.10;98.20
7646;DHT22;3864;48.180;14.178;2022-08-19T08:49:26;37.00;96.50
7646;DHT22;3864;48.180;14.178;2022-08-19T08:52:03;37.20;95.40
7646;DHT22;3864;48.180;14.178;2022-08-19T08:54:45;37.50;93.40
7646;DHT22;3864;48.180;14.178;2022-08-19T08:57:32;38.10;93.20
7646;DHT22;3864;48.180;14.178;2022-08-19T09:00:21;38.60;91.90
7646;DHT22;3864;48.180;14.178;2022-08-19T09:03:09;37.20;91.80
7646;DHT22;3864;48.180;14.178;2022-08-19T09:05:45;36.60;93.10
7646;DHT22;3864;48.180;14.178;2022-08-19T09:08:19;34.40;93.70
7646;DHT22;3864;48.180;14.178;2022-08-19T09:10:53;32.70;95.10
7646;DHT22;3864;48.180;14.178;2022-08-19T09:13:26;31.70;97.00
7646;DHT22;3864;48.180;14.178;2022-08-19T09:16:02;33.00;95.50
7646;DHT22;3864;48.180;14.178;2022-08-19T09:18:40;34.70;94.50
7646;DHT22;3864;48.180;14.178;2022-08-19T09:21:07;37.10;93.60
7646;DHT22;3864;48.180;14.178;2022-08-19T09:23:35;37.50;92.20
7646;DHT22;3864;48.180;14.178;2022-08-19T09:26:08;36.30;91.90
7646;DHT22;3864;48.180;14.178;2022-08-19T09:28:39;33.90;93.10
7646;DHT22;3864;48.180;14.178;2022-08-19T09:31:07;31.80;95.60
7646;DHT22;3864;48.180;14.178;2022-08-19T09:33:35;30.40;96.50
7646;DHT22;3864;48.180;14.178;2022-08-19T09:36:04;29.40;98.30
7646;DHT22;3864;48.180;14.178;2022-08-19T09:38:32;28.30;99.40
7646;DHT22;3864;48.180;14.178;2022-08-19T09:41:04;27.80;99.90
7646;DHT22;3864;48.180;14.178;2022-08-19T09:43:36;27.60;99.90
7646;DHT22;3864;48.180;14.178;2022-08-19T09:46:05;27.40;99.90
7646;DHT22;3864;48.180;14.178;2022-08-19T09:48:37;27.30;99.90
7646;DHT22;3864;48.180;14.178;2022-08-19T09:51:06;27.60;99.90
7646;DHT22;3864;48.180;14.178;2022-08-19T09:53:35;28.70;99.90
7646;DHT22;3864;48.180;14.178;2022-08-19T09:56:04;30.10;99.50
7646;DHT22;3864;48.180;14.178;2022-08-19T09:58:34;30.40;98.20
7646;DHT22;3864;48.180;14.178;2022-08-19T10:01:03;30.10;99.60
7646;DHT22;3864;48.180;14.178;2022-08-19T10:03:31;29.90;98.90
7646;DHT22;3864;48.180;14.178;2022-08-19T10:06:01;30.10;99.20
7646;DHT22;3864;48.180;14.178;2022-08-19T10:08:33;31.40;98.40
7646;DHT22;3864;48.180;14.178;2022-08-19T10:11:01;31.70;97.90
7646;DHT22;3864;48.180;14.178;2022-08-19T10:13:31;31.40;98.50
7646;DHT22;3864;48.180;14.178;2022-08-19T10:16:06;30.80;98.30
7646;DHT22;3864;48.180;14.178;2022-08-19T10:18:34;30.40;97.30
7646;DHT22;3864;48.180;14.178;2022-08-19T10:21:07;29.90;98.20
7646;DHT22;3864;48.180;14.178;2022-08-19T10:23:36;29.10;99.90
7646;DHT22;3864;48.180;14.178;2022-08-19T10:26:05;28.90;99.90
7646;DHT22;3864;48.180;14.178;2022-08-19T10:28:33;29.00;99.90
7646;DHT22;3864;48.180;14.178;2022-08-19T10:31:20;29.10;99.90
7646;DHT22;3864;48.180;14.178;2022-08-19T10:33:49;28.80;99.90
7646;DHT22;3864;48.180;14.178;2022-08-19T10:36:24;28.40;99.90
7646;DHT22;3864;48.180;14.178;2022-08-19T10:38:54;27.90;99.90
7646;DHT22;3864;48.180;14.178;2022-08-19T10:41:26;27.50;99.90
7646;DHT22;3864;48.180;14.178;2022-08-19T10:43:55;27.60;99.90
7646;DHT22;3864;48.180;14.178;2022-08-19T10:46:26;28.00;99.90
7646;DHT22;3864;48.180;14.178;2022-08-19T10:48:54;29.40;99.90
7646;DHT22;3864;48.180;14.178;2022-08-19T10:51:22;30.80;99.50
7646;DHT22;3864;48.180;14.178;2022-08-19T10:54:06;31.80;97.90
7646;DHT22;3864;48.180;14.178;2022-08-19T10:56:34;32.20;96.60
7646;DHT22;3864;48.180;14.178;2022-08-19T10:59:21;31.50;96.90
7646;DHT22;3864;48.180;14.178;2022-08-19T11:01:51;30.50;98.10
7646;DHT22;3864;48.180;14.178;2022-08-19T11:04:19;29.90;98.90
7646;DHT22;3864;48.180;14.178;2022-08-19T11:06:48;29.20;99.90
7646;DHT22;3864;48.180;14.178;2022-08-19T11:09:18;29.00;99.90
7646;DHT22;3864;48.180;14.178;2022-08-19T11:11:46;28.90;99.90
7646;DHT22;3864;48.180;14.178;2022-08-19T11:14:15;29.10;99.80
7646;DHT22;3864;48.180;14.178;2022-08-19T11:16:43;28.90;99.60
7646;DHT22;3864;48.180;14.178;2022-08-19T11:19:13;30.00;99.30
7646;DHT22;3864;48.180;14.178;2022-08-19T11:21:43;31.80;98.00
7646;DHT22;3864;48.180;14.178;2022-08-19T11:24:13;33.00;96.30
7646;DHT22;3864;48.180;14.178;2022-08-19T11:26:43;33.10;95.80
7646;DHT22;3864;48.180;14.178;2022-08-19T11:29:12;32.60;95.60
7646;DHT22;3864;48.180;14.178;2022-08-19T11:31:41;31.50;96.20
7646;DHT22;3864;48.180;14.178;2022-08-19T11:34:14;30.80;97.00
7646;DHT22;3864;48.180;14.178;2022-08-19T11:36:44;30.40;97.60
7646;DHT22;3864;48.180;14.178;2022-08-19T11:39:14;30.70;97.20
7646;DHT22;3864;48.180;14.178;2022-08-19T11:41:42;31.20;97.00
7646;DHT22;3864;48.180;14.178;2022-08-19T11:44:09;31.50;96.70
7646;DHT22;3864;48.180;14.178;2022-08-19T11:46:40;31.30;97.60
7646;DHT22;3864;48.180;14.178;2022-08-19T11:49:12;30.90;98.40
7646;DHT22;3864;48.180;14.178;2022-08-19T11:51:40;31.20;96.40
7646;DHT22;3864;48.180;14.178;2022-08-19T11:54:09;31.20;97.40
7646;DHT22;3864;48.180;14.178;2022-08-19T11:56:37;31.10;95.80
7646;DHT22;3864;48.180;14.178;2022-08-19T11:59:05;31.00;96.00
7646;DHT22;3864;48.180;14.178;2022-08-19T12:01:33;30.80;97.10
7646;DHT22;3864;48.180;14.178;2022-08-19T12:04:01;30.20;97.90
7646;DHT22;3864;48.180;14.178;2022-08-19T12:06:32;29.80;98.60
7646;DHT22;3864;48.180;14.178;2022-08-19T12:09:02;29.80;98.70
7646;DHT22;3864;48.180;14.178;2022-08-19T12:11:30;29.90;98.90
7646;DHT22;3864;48.180;14.178;2022-08-19T12:13:58;30.00;97.40
7646;DHT22;3864;48.180;14.178;2022-08-19T12:16:27;30.10;97.20
7646;DHT22;3864;48.180;14.178;2022-08-19T12:18:56;30.10;97.60
7646;DHT22;3864;48.180;14.178;2022-08-19T12:21:26;30.00;99.70
7646;DHT22;3864;48.180;14.178;2022-08-19T12:23:57;29.80;98.30
7646;DHT22;3864;48.180;14.178;2022-08-19T12:26:27;29.90;97.20
7646;DHT22;3864;48.180;14.178;2022-08-19T12:28:55;29.90;99.60
7646;DHT22;3864;48.180;14.178;2022-08-19T12:31:24;29.80;98.80
7646;DHT22;3864;48.180;14.178;2022-08-19T12:33:52;29.70;99.50
7646;DHT22;3864;48.180;14.178;2022-08-19T12:36:19;29.70;99.60
7646;DHT22;3864;48.180;14.178;2022-08-19T12:38:47;29.70;99.70
7646;DHT22;3864;48.180;14.178;2022-08-19T12:41:17;29.80;98.20
7646;DHT22;3864;48.180;14.178;2022-08-19T12:43:46;30.00;97.70
7646;DHT22;3864;48.180;14.178;2022-08-19T12:46:14;30.30;99.90
7646;DHT22;3864;48.180;14.178;2022-08-19T12:48:42;30.40;99.70
7646;DHT22;3864;48.180;14.178;2022-08-19T12:51:12;30.20;99.90
7646;DHT22;3864;48.180;14.178;2022-08-19T12:53:40;29.70;99.90
7646;DHT22;3864;48.180;14.178;2022-08-19T12:56:09;29.70;99.60
7646;DHT22;3864;48.180;14.178;2022-08-19T12:58:38;30.00;99.20
7646;DHT22;3864;48.180;14.178;2022-08-19T13:01:08;30.40;98.40
7646;DHT22;3864;48.180;14.178;2022-08-19T13:03:36;30.90;96.80
7646;DHT22;3864;48.180;14.178;2022-08-19T13:06:05;31.60;95.80
7646;DHT22;3864;48.180;14.178;2022-08-19T13:08:32;32.00;96.30
7646;DHT22;3864;48.180;14.178;2022-08-19T13:11:07;32.20;96.50
7646;DHT22;3864;48.180;14.178;2022-08-19T13:13:38;32.50;97.10
7646;DHT22;3864;48.180;14.178;2022-08-19T13:16:07;32.20;96.60
7646;DHT22;3864;48.180;14.178;2022-08-19T13:18:36;32.20;95.40
7646;DHT22;3864;48.180;14.178;2022-08-19T13:21:04;32.20;94.80
7646;DHT22;3864;48.180;14.178;2022-08-19T13:23:33;32.40;95.70
7646;DHT22;3864;48.180;14.178;2022-08-19T13:26:03;32.10;96.30
7646;DHT22;3864;48.180;14.178;2022-08-19T13:28:31;32.00;97.70
7646;DHT22;3864;48.180;14.178;2022-08-19T13:31:16;31.70;96.30
7646;DHT22;3864;48.180;14.178;2022-08-19T13:34:00;31.90;95.00
7646;DHT22;3864;48.180;14.178;2022-08-19T13:36:28;32.00;95.10
7646;DHT22;3864;48.180;14.178;2022-08-19T13:38:55;32.00;95.20
7646;DHT22;3864;48.180;14.178;2022-08-19T13:41:23;32.00;94.40
7646;DHT22;3864;48.180;14.178;2022-08-19T13:43:50;31.80;96.90
7646;DHT22;3864;48.180;14.178;2022-08-19T13:46:20;31.60;97.10
7646;DHT22;3864;48.180;14.178;2022-08-19T13:48:48;31.40;96.50
7646;DHT22;3864;48.180;14.178;2022-08-19T13:51:16;31.50;97.30
7646;DHT22;3864;48.180;14.178;2022-08-19T13:53:44;31.40;95.40
7646;DHT22;3864;48.180;14.178;2022-08-19T13:56:15;31.60;94.70
7646;DHT22;3864;48.180;14.178;2022-08-19T13:58:43;31.70;96.10
7646;DHT22;3864;48.180;14.178;2022-08-19T14:01:10;31.70;96.70
7646;DHT22;3864;48.180;14.178;2022-08-19T14:03:39;31.70;94.80
7646;DHT22;3864;48.180;14.178;2022-08-19T14:06:07;32.00;95.40
7646;DHT22;3864;48.180;14.178;2022-08-19T14:08:34;32.40;94.10
7646;DHT22;3864;48.180;14.178;2022-08-19T14:11:05;32.20;93.70
7646;DHT22;3864;48.180;14.178;2022-08-19T14:13:32;32.30;93.10
7646;DHT22;3864;48.180;14.178;2022-08-19T14:16:00;32.40;93.30
7646;DHT22;3864;48.180;14.178;2022-08-19T14:18:28;32.40;92.90
7646;DHT22;3864;48.180;14.178;2022-08-19T14:20:57;32.40;92.20
7646;DHT22;3864;48.180;14.178;2022-08-19T14:23:25;32.20;93.00
7646;DHT22;3864;48.180;14.178;2022-08-19T14:25:52;32.30;93.30
7646;DHT22;3864;48.180;14.178;2022-08-19T14:28:22;32.10;91.80
7646;DHT22;3864;48.180;14.178;2022-08-19T14:30:49;31.80;92.60
7646;DHT22;3864;48.180;14.178;2022-08-19T14:33:18;31.20;94.60
7646;DHT22;3864;48.180;14.178;2022-08-19T14:35:45;30.80;94.90
7646;DHT22;3864;48.180;14.178;2022-08-19T14:38:17;30.40;96.70
7646;DHT22;3864;48.180;14.178;2022-08-19T14:40:45;30.10;96.40
7646;DHT22;3864;48.180;14.178;2022-08-19T14:43:12;29.80;97.60
7646;DHT22;3864;48.180;14.178;2022-08-19T14:45:40;29.60;97.30
7646;DHT22;3864;48.180;14.178;2022-08-19T14:48:08;29.30;97.30
7646;DHT22;3864;48.180;14.178;2022-08-19T14:50:36;29.00;97.90
7646;DHT22;3864;48.180;14.178;2022-08-19T14:53:06;28.60;97.90
7646;DHT22;3864;48.180;14.178;2022-08-19T14:55:36;28.40;98.90
7646;DHT22;3864;48.180;14.178;2022-08-19T14:58:03;28.20;97.20
7646;DHT22;3864;48.180;14.178;2022-08-19T15:00:31;28.00;99.40
7646;DHT22;3864;48.180;14.178;2022-08-19T15:02:59;27.90;99.20
7646;DHT22;3864;48.180;14.178;2022-08-19T15:05:26;27.60;99.30
7646;DHT22;3864;48.180;14.178;2022-08-19T15:07:54;27.30;99.90
7646;DHT22;3864;48.180;14.178;2022-08-19T15:10:22;26.70;99.90
7646;DHT22;3864;48.180;14.178;2022-08-19T15:12:51;26.10;96.90
7646;DHT22;3864;48.180;14.178;2022-08-19T15:15:20;25.10;95.80
7646;DHT22;3864;48.180;14.178;2022-08-19T15:17:48;24.20;97.50
7646;DHT22;3864;48.180;14.178;2022-08-19T15:20:18;23.40;99.00
7646;DHT22;3864;48.180;14.178;2022-08-19T15:22:46;22.60;99.90
7646;DHT22;3864;48.180;14.178;2022-08-19T15:25:16;21.80;99.90
7646;DHT22;3864;48.180;14.178;2022-08-19T15:27:46;21.10;99.90
7646;DHT22;3864;48.180;14.178;2022-08-19T15:30:19;20.10;99.90
7646;DHT22;3864;48.180;14.178;2022-08-19T15:32:48;19.10;99.90
7646;DHT22;3864;48.180;14.178;2022-08-19T15:35:16;18.60;99.90
7646;DHT22;3864;48.180;14.178;2022-08-19T15:37:47;18.10;99.90
7646;DHT22;3864;48.180;14.178;2022-08-19T15:40:14;17.90;99.90
7646;DHT22;3864;48.180;14.178;2022-08-19T15:42:42;17.70;99.90
7646;DHT22;3864;48.180;14.178;2022-08-19T15:45:10;17.70;99.90
7646;DHT22;3864;48.180;14.178;2022-08-19T15:47:40;17.70;99.90
7646;DHT22;3864;48.180;14.178;2022-08-19T15:50:10;17.70;99.90
7646;DHT22;3864;48.180;14.178;2022-08-19T15:53:06;17.60;99.90
7646;DHT22;3864;48.180;14.178;2022-08-19T15:55:36;17.60;99.90
7646;DHT22;3864;48.180;14.178;2022-08-19T15:58:05;17.60;99.90
7646;DHT22;3864;48.180;14.178;2022-08-19T16:00:50;17.60;99.90
7646;DHT22;3864;48.180;14.178;2022-08-19T16:03:36;17.40;99.90
7646;DHT22;3864;48.180;14.178;2022-08-19T16:06:21;17.40;99.90
7646;DHT22;3864;48.180;14.178;2022-08-19T16:08:57;17.50;99.90